sensor_id;sensor_type;location;lat;lon;timestamp;P1;durP1;ratioP1;P2;durP2;ratioP2
42770;SDS011;28426;42.872;25.314;2024-01-16T00:00:17;5.93;;;3.08;;
42770;SDS011;28426;42.872;25.314;2024-01-16T00:02:48;4.93;;;2.53;;
42770;SDS011;28426;42.872;25.314;2024-01-16T00:05:19;6.18;;;2.78;;
42770;SDS011;28426;42.872;25.314;2024-01-16T00:07:50;5.63;;;3.00;;
42770;SDS011;28426;42.872;25.314;2024-01-16T00:10:23;5.65;;;2.80;;
42770;SDS011;28426;42.872;25.314;2024-01-16T00:12:54;5.70;;;2.83;;
42770;SDS011;28426;42.872;25.314;2024-01-16T00:15:25;6.38;;;3.13;;
42770;SDS011;28426;42.872;25.314;2024-01-16T00:17:56;7.18;;;4.32;;
42770;SDS011;28426;42.872;25.314;2024-01-16T00:20:27;5.00;;;2.75;;
42770;SDS011;28426;42.872;25.314;2024-01-16T00:22:58;5.55;;;2.53;;
42770;SDS011;28426;42.872;25.314;2024-01-16T00:25:32;4.55;;;2.17;;
42770;SDS011;28426;42.872;25.314;2024-01-16T00:28:03;4.78;;;2.25;;
42770;SDS011;28426;42.872;25.314;2024-01-16T00:30:34;4.88;;;2.20;;
42770;SDS011;28426;42.872;25.314;2024-01-16T00:33:06;6.30;;;2.60;;
42770;SDS011;28426;42.872;25.314;2024-01-16T00:35:37;6.18;;;3.13;;
42770;SDS011;28426;42.872;25.314;2024-01-16T00:38:08;4.97;;;2.83;;
42770;SDS011;28426;42.872;25.314;2024-01-16T00:40:41;4.55;;;1.98;;
42770;SDS011;28426;42.872;25.314;2024-01-16T00:43:13;4.85;;;2.20;;
42770;SDS011;28426;42.872;25.314;2024-01-16T00:45:44;5.20;;;2.65;;
42770;SDS011;28426;42.872;25.314;2024-01-16T00:48:15;3.75;;;2.00;;
42770;SDS011;28426;42.872;25.314;2024-01-16T00:50:48;4.07;;;2.10;;
42770;SDS011;28426;42.872;25.314;2024-01-16T00:53:19;4.35;;;2.30;;
42770;SDS011;28426;42.872;25.314;2024-01-16T00:55:52;6.65;;;3.05;;
42770;SDS011;28426;42.872;25.314;2024-01-16T00:58:24;8.57;;;5.22;;
42770;SDS011;28426;42.872;25.314;2024-01-16T01:00:54;6.85;;;3.70;;
42770;SDS011;28426;42.872;25.314;2024-01-16T01:03:25;7.55;;;3.20;;
42770;SDS011;28426;42.872;25.314;2024-01-16T01:05:56;9.75;;;6.75;;
42770;SDS011;28426;42.872;25.314;2024-01-16T01:08:28;6.13;;;3.00;;
42770;SDS011;28426;42.872;25.314;2024-01-16T01:11:01;7.70;;;4.20;;
42770;SDS011;28426;42.872;25.314;2024-01-16T01:13:32;7.88;;;3.50;;
42770;SDS011;28426;42.872;25.314;2024-01-16T01:16:03;5.38;;;2.72;;
42770;SDS011;28426;42.872;25.314;2024-01-16T01:18:34;7.50;;;3.88;;
42770;SDS011;28426;42.872;25.314;2024-01-16T01:21:05;8.98;;;3.80;;
42770;SDS011;28426;42.872;25.314;2024-01-16T01:23:36;9.40;;;4.70;;
42770;SDS011;28426;42.872;25.314;2024-01-16T01:26:09;9.85;;;4.38;;
42770;SDS011;28426;42.872;25.314;2024-01-16T01:28:41;10.05;;;4.60;;
42770;SDS011;28426;42.872;25.314;2024-01-16T01:31:11;9.75;;;4.25;;
42770;SDS011;28426;42.872;25.314;2024-01-16T01:33:42;8.55;;;4.60;;
42770;SDS011;28426;42.872;25.314;2024-01-16T01:36:13;6.80;;;3.38;;
42770;SDS011;28426;42.872;25.314;2024-01-16T01:38:44;7.22;;;3.47;;
42770;SDS011;28426;42.872;25.314;2024-01-16T01:41:18;7.25;;;3.60;;
42770;SDS011;28426;42.872;25.314;2024-01-16T01:43:48;6.80;;;3.38;;
42770;SDS011;28426;42.872;25.314;2024-01-16T01:46:19;7.28;;;3.65;;
42770;SDS011;28426;42.872;25.314;2024-01-16T01:48:51;7.10;;;3.40;;
42770;SDS011;28426;42.872;25.314;2024-01-16T01:51:22;9.02;;;4.40;;
42770;SDS011;28426;42.872;25.314;2024-01-16T01:53:53;8.52;;;3.80;;
42770;SDS011;28426;42.872;25.314;2024-01-16T01:56:28;8.32;;;4.05;;
42770;SDS011;28426;42.872;25.314;2024-01-16T01:58:59;7.55;;;3.70;;
42770;SDS011;28426;42.872;25.314;2024-01-16T02:01:30;8.35;;;3.60;;
42770;SDS011;28426;42.872;25.314;2024-01-16T02:04:02;7.15;;;3.53;;
42770;SDS011;28426;42.872;25.314;2024-01-16T02:06:34;6.55;;;3.67;;
42770;SDS011;28426;42.872;25.314;2024-01-16T02:09:05;7.63;;;3.47;;
42770;SDS011;28426;42.872;25.314;2024-01-16T02:11:39;6.82;;;3.53;;
42770;SDS011;28426;42.872;25.314;2024-01-16T02:14:11;8.77;;;4.00;;
42770;SDS011;28426;42.872;25.314;2024-01-16T02:16:42;8.00;;;3.40;;
42770;SDS011;28426;42.872;25.314;2024-01-16T02:19:14;7.53;;;3.80;;
42770;SDS011;28426;42.872;25.314;2024-01-16T02:21:46;7.40;;;3.85;;
42770;SDS011;28426;42.872;25.314;2024-01-16T02:24:21;7.55;;;3.63;;
42770;SDS011;28426;42.872;25.314;2024-01-16T02:26:51;10.43;;;4.50;;
42770;SDS011;28426;42.872;25.314;2024-01-16T02:29:23;7.55;;;4.25;;
42770;SDS011;28426;42.872;25.314;2024-01-16T02:31:54;9.85;;;4.40;;
42770;SDS011;28426;42.872;25.314;2024-01-16T02:34:24;8.57;;;4.78;;
42770;SDS011;28426;42.872;25.314;2024-01-16T02:36:55;9.52;;;5.57;;
42770;SDS011;28426;42.872;25.314;2024-01-16T02:39:28;11.70;;;6.05;;
42770;SDS011;28426;42.872;25.314;2024-01-16T02:41:59;12.27;;;5.93;;
42770;SDS011;28426;42.872;25.314;2024-01-16T02:44:30;12.32;;;6.07;;
42770;SDS011;28426;42.872;25.314;2024-01-16T02:47:00;11.13;;;6.15;;
42770;SDS011;28426;42.872;25.314;2024-01-16T02:49:34;12.27;;;6.40;;
42770;SDS011;28426;42.872;25.314;2024-01-16T02:52:05;12.98;;;6.95;;
42770;SDS011;28426;42.872;25.314;2024-01-16T02:54:38;12.70;;;7.10;;
42770;SDS011;28426;42.872;25.314;2024-01-16T02:57:09;10.15;;;5.72;;
42770;SDS011;28426;42.872;25.314;2024-01-16T02:59:42;13.00;;;6.22;;
42770;SDS011;28426;42.872;25.314;2024-01-16T03:02:13;11.32;;;5.53;;
42770;SDS011;28426;42.872;25.314;2024-01-16T03:04:44;10.85;;;6.00;;
42770;SDS011;28426;42.872;25.314;2024-01-16T03:07:15;8.55;;;4.68;;
42770;SDS011;28426;42.872;25.314;2024-01-16T03:09:48;10.55;;;5.82;;
42770;SDS011;28426;42.872;25.314;2024-01-16T03:12:19;14.93;;;5.85;;
42770;SDS011;28426;42.872;25.314;2024-01-16T03:14:50;10.65;;;5.47;;
42770;SDS011;28426;42.872;25.314;2024-01-16T03:17:21;12.40;;;6.07;;
42770;SDS011;28426;42.872;25.314;2024-01-16T03:19:52;8.38;;;5.15;;
42770;SDS011;28426;42.872;25.314;2024-01-16T03:22:22;11.13;;;5.50;;
42770;SDS011;28426;42.872;25.314;2024-01-16T03:24:56;10.10;;;5.07;;
42770;SDS011;28426;42.872;25.314;2024-01-16T03:27:30;10.73;;;5.13;;
42770;SDS011;28426;42.872;25.314;2024-01-16T03:30:01;8.27;;;4.93;;
42770;SDS011;28426;42.872;25.314;2024-01-16T03:32:32;12.38;;;5.85;;
42770;SDS011;28426;42.872;25.314;2024-01-16T03:35:03;15.27;;;8.00;;
42770;SDS011;28426;42.872;25.314;2024-01-16T03:37:34;15.40;;;8.20;;
42770;SDS011;28426;42.872;25.314;2024-01-16T03:40:11;15.45;;;9.73;;
42770;SDS011;28426;42.872;25.314;2024-01-16T03:42:42;18.10;;;9.90;;
42770;SDS011;28426;42.872;25.314;2024-01-16T03:45:12;19.58;;;11.40;;
42770;SDS011;28426;42.872;25.314;2024-01-16T03:47:44;19.98;;;11.85;;
42770;SDS011;28426;42.872;25.314;2024-01-16T03:50:16;22.08;;;12.02;;
42770;SDS011;28426;42.872;25.314;2024-01-16T03:52:47;21.60;;;13.50;;
42770;SDS011;28426;42.872;25.314;2024-01-16T03:55:20;22.20;;;13.73;;
42770;SDS011;28426;42.872;25.314;2024-01-16T03:57:51;23.92;;;14.50;;
42770;SDS011;28426;42.872;25.314;2024-01-16T04:00:21;27.73;;;15.48;;
42770;SDS011;28426;42.872;25.314;2024-01-16T04:02:52;25.75;;;16.00;;
42770;SDS011;28426;42.872;25.314;2024-01-16T04:05:23;24.58;;;15.30;;
42770;SDS011;28426;42.872;25.314;2024-01-16T04:07:54;25.50;;;15.27;;
42770;SDS011;28426;42.872;25.314;2024-01-16T04:10:29;27.15;;;16.30;;
42770;SDS011;28426;42.872;25.314;2024-01-16T04:13:00;26.30;;;15.45;;
42770;SDS011;28426;42.872;25.314;2024-01-16T04:15:31;28.40;;;17.00;;
42770;SDS011;28426;42.872;25.314;2024-01-16T04:18:01;28.00;;;17.23;;
42770;SDS011;28426;42.872;25.314;2024-01-16T04:20:33;27.25;;;17.52;;
42770;SDS011;28426;42.872;25.314;2024-01-16T04:23:03;30.73;;;17.33;;
42770;SDS011;28426;42.872;25.314;2024-01-16T04:25:37;28.60;;;17.75;;
42770;SDS011;28426;42.872;25.314;2024-01-16T04:28:07;26.65;;;16.17;;
42770;SDS011;28426;42.872;25.314;2024-01-16T04:30:38;29.40;;;17.90;;
42770;SDS011;28426;42.872;25.314;2024-01-16T04:33:09;30.77;;;18.27;;
42770;SDS011;28426;42.872;25.314;2024-01-16T04:35:39;28.63;;;18.35;;
42770;SDS011;28426;42.872;25.314;2024-01-16T04:38:10;29.35;;;17.38;;
42770;SDS011;28426;42.872;25.314;2024-01-16T04:40:44;24.30;;;14.98;;
42770;SDS011;28426;42.872;25.314;2024-01-16T04:43:15;23.13;;;14.63;;
42770;SDS011;28426;42.872;25.314;2024-01-16T04:45:46;24.92;;;15.15;;
42770;SDS011;28426;42.872;25.314;2024-01-16T04:48:16;25.73;;;13.98;;
42770;SDS011;28426;42.872;25.314;2024-01-16T04:50:47;25.35;;;15.18;;
42770;SDS011;28426;42.872;25.314;2024-01-16T04:53:18;24.75;;;14.65;;
42770;SDS011;28426;42.872;25.314;2024-01-16T04:55:52;22.70;;;14.40;;
42770;SDS011;28426;42.872;25.314;2024-01-16T04:58:22;24.25;;;14.15;;
42770;SDS011;28426;42.872;25.314;2024-01-16T05:00:53;19.52;;;11.70;;
42770;SDS011;28426;42.872;25.314;2024-01-16T05:03:24;25.55;;;14.63;;
42770;SDS011;28426;42.872;25.314;2024-01-16T05:05:55;24.77;;;13.57;;
42770;SDS011;28426;42.872;25.314;2024-01-16T05:08:26;21.88;;;12.63;;
42770;SDS011;28426;42.872;25.314;2024-01-16T05:11:00;21.08;;;12.68;;
42770;SDS011;28426;42.872;25.314;2024-01-16T05:13:31;23.42;;;12.70;;
42770;SDS011;28426;42.872;25.314;2024-01-16T05:16:02;30.00;;;14.43;;
42770;SDS011;28426;42.872;25.314;2024-01-16T05:18:33;22.58;;;12.02;;
42770;SDS011;28426;42.872;25.314;2024-01-16T05:21:04;18.58;;;10.30;;
42770;SDS011;28426;42.872;25.314;2024-01-16T05:23:35;16.52;;;9.88;;
42770;SDS011;28426;42.872;25.314;2024-01-16T05:26:08;16.58;;;9.57;;
42770;SDS011;28426;42.872;25.314;2024-01-16T05:28:39;17.70;;;9.13;;
42770;SDS011;28426;42.872;25.314;2024-01-16T05:31:10;14.15;;;8.93;;
42770;SDS011;28426;42.872;25.314;2024-01-16T05:33:41;18.08;;;8.90;;
42770;SDS011;28426;42.872;25.314;2024-01-16T05:36:12;15.65;;;8.48;;
42770;SDS011;28426;42.872;25.314;2024-01-16T05:38:42;11.45;;;6.65;;
42770;SDS011;28426;42.872;25.314;2024-01-16T05:41:16;10.75;;;5.63;;
42770;SDS011;28426;42.872;25.314;2024-01-16T05:43:47;9.05;;;5.47;;
42770;SDS011;28426;42.872;25.314;2024-01-16T05:46:18;12.23;;;5.57;;
42770;SDS011;28426;42.872;25.314;2024-01-16T05:48:48;9.45;;;5.32;;
42770;SDS011;28426;42.872;25.314;2024-01-16T05:51:19;9.93;;;6.25;;
42770;SDS011;28426;42.872;25.314;2024-01-16T05:53:50;9.85;;;6.03;;
42770;SDS011;28426;42.872;25.314;2024-01-16T05:56:24;11.65;;;5.88;;
42770;SDS011;28426;42.872;25.314;2024-01-16T05:58:55;10.63;;;6.88;;
42770;SDS011;28426;42.872;25.314;2024-01-16T06:01:25;11.10;;;6.32;;
42770;SDS011;28426;42.872;25.314;2024-01-16T06:03:56;10.98;;;5.85;;
42770;SDS011;28426;42.872;25.314;2024-01-16T06:06:27;11.63;;;6.00;;
42770;SDS011;28426;42.872;25.314;2024-01-16T06:08:58;10.73;;;6.40;;
42770;SDS011;28426;42.872;25.314;2024-01-16T06:11:34;11.63;;;6.90;;
42770;SDS011;28426;42.872;25.314;2024-01-16T06:14:05;11.90;;;6.63;;
42770;SDS011;28426;42.872;25.314;2024-01-16T06:16:36;11.35;;;5.63;;
42770;SDS011;28426;42.872;25.314;2024-01-16T06:19:07;9.68;;;5.85;;
42770;SDS011;28426;42.872;25.314;2024-01-16T06:21:38;10.18;;;5.38;;
42770;SDS011;28426;42.872;25.314;2024-01-16T06:24:08;12.80;;;6.43;;
42770;SDS011;28426;42.872;25.314;2024-01-16T06:26:43;10.50;;;5.68;;
42770;SDS011;28426;42.872;25.314;2024-01-16T06:29:14;10.38;;;4.82;;
42770;SDS011;28426;42.872;25.314;2024-01-16T06:31:57;5.78;;;3.20;;
42770;SDS011;28426;42.872;25.314;2024-01-16T06:34:28;6.00;;;3.10;;
42770;SDS011;28426;42.872;25.314;2024-01-16T06:36:59;5.25;;;2.90;;
42770;SDS011;28426;42.872;25.314;2024-01-16T06:39:30;5.43;;;2.72;;
42770;SDS011;28426;42.872;25.314;2024-01-16T06:42:04;5.97;;;2.58;;
42770;SDS011;28426;42.872;25.314;2024-01-16T06:44:37;7.07;;;2.90;;
42770;SDS011;28426;42.872;25.314;2024-01-16T06:47:08;5.75;;;2.80;;
42770;SDS011;28426;42.872;25.314;2024-01-16T06:49:39;5.88;;;2.95;;
42770;SDS011;28426;42.872;25.314;2024-01-16T06:52:10;6.63;;;2.75;;
42770;SDS011;28426;42.872;25.314;2024-01-16T06:54:41;4.85;;;2.35;;
42770;SDS011;28426;42.872;25.314;2024-01-16T06:57:14;6.75;;;3.00;;
42770;SDS011;28426;42.872;25.314;2024-01-16T06:59:45;6.38;;;3.00;;
42770;SDS011;28426;42.872;25.314;2024-01-16T07:02:16;6.72;;;2.95;;
42770;SDS011;28426;42.872;25.314;2024-01-16T07:04:46;5.47;;;2.30;;
42770;SDS011;28426;42.872;25.314;2024-01-16T07:07:17;5.95;;;3.00;;
42770;SDS011;28426;42.872;25.314;2024-01-16T07:09:48;6.30;;;2.97;;
42770;SDS011;28426;42.872;25.314;2024-01-16T07:12:21;5.15;;;2.92;;
42770;SDS011;28426;42.872;25.314;2024-01-16T07:14:52;4.90;;;2.50;;
42770;SDS011;28426;42.872;25.314;2024-01-16T07:17:23;5.82;;;2.60;;
42770;SDS011;28426;42.872;25.314;2024-01-16T07:19:54;8.30;;;3.75;;
42770;SDS011;28426;42.872;25.314;2024-01-16T07:22:25;13.77;;;5.03;;
42770;SDS011;28426;42.872;25.314;2024-01-16T07:24:57;4.70;;;1.95;;
42770;SDS011;28426;42.872;25.314;2024-01-16T07:27:31;4.63;;;1.98;;
42770;SDS011;28426;42.872;25.314;2024-01-16T07:30:04;5.00;;;2.30;;
42770;SDS011;28426;42.872;25.314;2024-01-16T07:32:35;3.50;;;1.85;;
42770;SDS011;28426;42.872;25.314;2024-01-16T07:35:06;3.88;;;1.60;;
42770;SDS011;28426;42.872;25.314;2024-01-16T07:37:38;3.20;;;1.40;;
42770;SDS011;28426;42.872;25.314;2024-01-16T07:40:09;2.53;;;1.20;;
42770;SDS011;28426;42.872;25.314;2024-01-16T07:42:43;2.92;;;1.25;;
42770;SDS011;28426;42.872;25.314;2024-01-16T07:45:14;3.20;;;1.33;;
42770;SDS011;28426;42.872;25.314;2024-01-16T07:47:45;3.03;;;1.17;;
42770;SDS011;28426;42.872;25.314;2024-01-16T07:50:15;2.22;;;0.90;;
42770;SDS011;28426;42.872;25.314;2024-01-16T07:52:47;2.15;;;1.00;;
42770;SDS011;28426;42.872;25.314;2024-01-16T07:55:18;4.22;;;1.40;;
42770;SDS011;28426;42.872;25.314;2024-01-16T07:57:53;2.40;;;1.00;;
42770;SDS011;28426;42.872;25.314;2024-01-16T08:00:24;2.70;;;1.20;;
42770;SDS011;28426;42.872;25.314;2024-01-16T08:02:55;2.72;;;1.10;;
42770;SDS011;28426;42.872;25.314;2024-01-16T08:05:26;3.65;;;1.10;;
42770;SDS011;28426;42.872;25.314;2024-01-16T08:07:57;2.33;;;1.20;;
42770;SDS011;28426;42.872;25.314;2024-01-16T08:10:28;35.58;;;16.70;;
42770;SDS011;28426;42.872;25.314;2024-01-16T08:13:01;6.32;;;2.97;;
42770;SDS011;28426;42.872;25.314;2024-01-16T08:15:32;3.90;;;1.70;;
42770;SDS011;28426;42.872;25.314;2024-01-16T08:18:03;3.85;;;1.40;;
42770;SDS011;28426;42.872;25.314;2024-01-16T08:20:34;3.58;;;1.50;;
42770;SDS011;28426;42.872;25.314;2024-01-16T08:23:05;4.50;;;2.50;;
42770;SDS011;28426;42.872;25.314;2024-01-16T08:25:36;5.35;;;2.15;;
42770;SDS011;28426;42.872;25.314;2024-01-16T08:28:09;6.50;;;4.20;;
42770;SDS011;28426;42.872;25.314;2024-01-16T08:30:40;3.40;;;1.70;;
42770;SDS011;28426;42.872;25.314;2024-01-16T08:33:11;4.13;;;2.00;;
42770;SDS011;28426;42.872;25.314;2024-01-16T08:35:42;4.22;;;1.95;;
42770;SDS011;28426;42.872;25.314;2024-01-16T08:38:13;5.18;;;2.42;;
42770;SDS011;28426;42.872;25.314;2024-01-16T08:40:44;4.20;;;1.50;;
42770;SDS011;28426;42.872;25.314;2024-01-16T08:43:18;2.45;;;1.30;;
42770;SDS011;28426;42.872;25.314;2024-01-16T08:45:49;3.38;;;1.45;;
42770;SDS011;28426;42.872;25.314;2024-01-16T08:48:20;2.15;;;0.82;;
42770;SDS011;28426;42.872;25.314;2024-01-16T08:50:51;1.98;;;0.98;;
42770;SDS011;28426;42.872;25.314;2024-01-16T08:53:23;2.42;;;1.02;;
42770;SDS011;28426;42.872;25.314;2024-01-16T08:55:54;3.05;;;1.48;;
42770;SDS011;28426;42.872;25.314;2024-01-16T08:58:27;3.72;;;1.77;;
42770;SDS011;28426;42.872;25.314;2024-01-16T09:01:03;2.85;;;1.42;;
42770;SDS011;28426;42.872;25.314;2024-01-16T09:03:35;2.55;;;1.30;;
42770;SDS011;28426;42.872;25.314;2024-01-16T09:06:06;5.43;;;1.30;;
42770;SDS011;28426;42.872;25.314;2024-01-16T09:08:38;1.85;;;0.80;;
42770;SDS011;28426;42.872;25.314;2024-01-16T09:11:06;4.85;;;2.10;;
42770;SDS011;28426;42.872;25.314;2024-01-16T09:13:41;4.78;;;2.08;;
42770;SDS011;28426;42.872;25.314;2024-01-16T09:16:12;2.25;;;1.05;;
42770;SDS011;28426;42.872;25.314;2024-01-16T09:18:42;2.05;;;0.95;;
42770;SDS011;28426;42.872;25.314;2024-01-16T09:21:14;11.02;;;1.42;;
42770;SDS011;28426;42.872;25.314;2024-01-16T09:23:44;2.35;;;1.00;;
42770;SDS011;28426;42.872;25.314;2024-01-16T09:26:15;3.70;;;0.93;;
42770;SDS011;28426;42.872;25.314;2024-01-16T09:28:49;2.53;;;0.90;;
42770;SDS011;28426;42.872;25.314;2024-01-16T09:31:20;9.18;;;1.80;;
42770;SDS011;28426;42.872;25.314;2024-01-16T09:33:51;4.00;;;1.75;;
42770;SDS011;28426;42.872;25.314;2024-01-16T09:36:21;3.63;;;1.35;;
42770;SDS011;28426;42.872;25.314;2024-01-16T09:38:52;10.45;;;1.92;;
42770;SDS011;28426;42.872;25.314;2024-01-16T09:41:23;10.27;;;1.85;;
42770;SDS011;28426;42.872;25.314;2024-01-16T09:43:56;17.38;;;3.35;;
42770;SDS011;28426;42.872;25.314;2024-01-16T09:46:27;11.07;;;2.72;;
42770;SDS011;28426;42.872;25.314;2024-01-16T09:49:00;8.93;;;2.92;;
42770;SDS011;28426;42.872;25.314;2024-01-16T09:51:32;4.57;;;1.60;;
42770;SDS011;28426;42.872;25.314;2024-01-16T09:54:03;6.18;;;1.40;;
42770;SDS011;28426;42.872;25.314;2024-01-16T09:56:39;6.88;;;2.58;;
42770;SDS011;28426;42.872;25.314;2024-01-16T09:59:17;8.32;;;1.35;;
42770;SDS011;28426;42.872;25.314;2024-01-16T10:01:48;6.97;;;1.92;;
42770;SDS011;28426;42.872;25.314;2024-01-16T10:04:21;10.13;;;1.35;;
42770;SDS011;28426;42.872;25.314;2024-01-16T10:06:52;12.85;;;1.50;;
42770;SDS011;28426;42.872;25.314;2024-01-16T10:09:25;30.20;;;3.25;;
42770;SDS011;28426;42.872;25.314;2024-01-16T10:11:56;12.57;;;1.90;;
42770;SDS011;28426;42.872;25.314;2024-01-16T10:14:30;7.15;;;1.13;;
42770;SDS011;28426;42.872;25.314;2024-01-16T10:17:03;16.60;;;2.30;;
42770;SDS011;28426;42.872;25.314;2024-01-16T10:19:47;10.40;;;1.77;;
42770;SDS011;28426;42.872;25.314;2024-01-16T10:22:20;5.68;;;1.70;;
42770;SDS011;28426;42.872;25.314;2024-01-16T10:25:06;5.72;;;1.30;;
42770;SDS011;28426;42.872;25.314;2024-01-16T10:27:39;1.37;;;0.80;;
42770;SDS011;28426;42.872;25.314;2024-01-16T10:30:13;6.75;;;1.60;;
42770;SDS011;28426;42.872;25.314;2024-01-16T10:32:43;12.10;;;2.65;;
42770;SDS011;28426;42.872;25.314;2024-01-16T10:35:16;6.50;;;2.20;;
42770;SDS011;28426;42.872;25.314;2024-01-16T10:37:51;20.73;;;2.45;;
42770;SDS011;28426;42.872;25.314;2024-01-16T10:40:24;15.18;;;4.35;;
42770;SDS011;28426;42.872;25.314;2024-01-16T10:42:58;12.20;;;2.30;;
42770;SDS011;28426;42.872;25.314;2024-01-16T10:45:33;9.27;;;2.10;;
42770;SDS011;28426;42.872;25.314;2024-01-16T10:48:05;14.40;;;1.40;;
42770;SDS011;28426;42.872;25.314;2024-01-16T10:50:37;2.50;;;0.90;;
42770;SDS011;28426;42.872;25.314;2024-01-16T10:53:08;6.45;;;1.33;;
42770;SDS011;28426;42.872;25.314;2024-01-16T10:55:43;20.08;;;1.95;;
42770;SDS011;28426;42.872;25.314;2024-01-16T10:58:19;9.05;;;1.25;;
42770;SDS011;28426;42.872;25.314;2024-01-16T11:00:56;7.53;;;2.65;;
42770;SDS011;28426;42.872;25.314;2024-01-16T11:03:29;15.68;;;3.83;;
42770;SDS011;28426;42.872;25.314;2024-01-16T11:06:05;10.90;;;1.98;;
42770;SDS011;28426;42.872;25.314;2024-01-16T11:08:39;17.40;;;2.80;;
42770;SDS011;28426;42.872;25.314;2024-01-16T11:11:11;12.07;;;1.70;;
42770;SDS011;28426;42.872;25.314;2024-01-16T11:13:43;5.28;;;1.52;;
42770;SDS011;28426;42.872;25.314;2024-01-16T11:16:19;11.32;;;2.85;;
42770;SDS011;28426;42.872;25.314;2024-01-16T11:18:52;14.90;;;3.25;;
42770;SDS011;28426;42.872;25.314;2024-01-16T11:21:43;15.95;;;2.65;;
42770;SDS011;28426;42.872;25.314;2024-01-16T11:24:16;27.80;;;2.33;;
42770;SDS011;28426;42.872;25.314;2024-01-16T11:26:47;11.25;;;2.03;;
42770;SDS011;28426;42.872;25.314;2024-01-16T11:29:33;21.33;;;3.22;;
42770;SDS011;28426;42.872;25.314;2024-01-16T11:32:08;9.98;;;1.40;;
42770;SDS011;28426;42.872;25.314;2024-01-16T11:34:59;16.27;;;2.60;;
42770;SDS011;28426;42.872;25.314;2024-01-16T11:37:30;9.50;;;1.27;;
42770;SDS011;28426;42.872;25.314;2024-01-16T11:42:55;9.30;;;1.13;;
42770;SDS011;28426;42.872;25.314;2024-01-16T11:48:19;16.85;;;2.40;;
42770;SDS011;28426;42.872;25.314;2024-01-16T11:50:51;7.40;;;1.52;;
42770;SDS011;28426;42.872;25.314;2024-01-16T12:02:48;28.10;;;3.50;;
42770;SDS011;28426;42.872;25.314;2024-01-16T12:05:24;10.15;;;1.73;;
42770;SDS011;28426;42.872;25.314;2024-01-16T12:07:55;8.50;;;1.35;;
42770;SDS011;28426;42.872;25.314;2024-01-16T12:10:26;8.23;;;1.52;;
42770;SDS011;28426;42.872;25.314;2024-01-16T12:12:57;28.20;;;4.28;;
42770;SDS011;28426;42.872;25.314;2024-01-16T12:15:32;3.80;;;1.77;;
42770;SDS011;28426;42.872;25.314;2024-01-16T12:18:03;5.65;;;1.20;;
42770;SDS011;28426;42.872;25.314;2024-01-16T12:20:51;10.57;;;2.00;;
42770;SDS011;28426;42.872;25.314;2024-01-16T12:23:22;5.78;;;1.40;;
42770;SDS011;28426;42.872;25.314;2024-01-16T12:25:53;6.95;;;1.60;;
42770;SDS011;28426;42.872;25.314;2024-01-16T12:28:30;7.40;;;2.00;;
42770;SDS011;28426;42.872;25.314;2024-01-16T12:31:01;15.30;;;2.72;;
42770;SDS011;28426;42.872;25.314;2024-01-16T12:33:32;12.85;;;1.88;;
42770;SDS011;28426;42.872;25.314;2024-01-16T12:36:08;11.00;;;1.70;;
42770;SDS011;28426;42.872;25.314;2024-01-16T12:38:39;5.95;;;1.40;;
42770;SDS011;28426;42.872;25.314;2024-01-16T12:41:10;20.27;;;1.98;;
42770;SDS011;28426;42.872;25.314;2024-01-16T12:43:48;20.75;;;2.70;;
42770;SDS011;28426;42.872;25.314;2024-01-16T12:49:03;9.52;;;1.70;;
42770;SDS011;28426;42.872;25.314;2024-01-16T12:51:37;8.02;;;1.40;;
42770;SDS011;28426;42.872;25.314;2024-01-16T12:54:12;2.25;;;0.90;;
42770;SDS011;28426;42.872;25.314;2024-01-16T12:56:43;6.75;;;1.00;;
42770;SDS011;28426;42.872;25.314;2024-01-16T12:59:14;10.23;;;2.53;;
42770;SDS011;28426;42.872;25.314;2024-01-16T13:01:45;19.85;;;2.58;;
42770;SDS011;28426;42.872;25.314;2024-01-16T13:04:16;6.15;;;2.70;;
42770;SDS011;28426;42.872;25.314;2024-01-16T13:06:51;8.10;;;1.95;;
42770;SDS011;28426;42.872;25.314;2024-01-16T13:09:33;5.15;;;1.80;;
42770;SDS011;28426;42.872;25.314;2024-01-16T13:12:04;5.00;;;1.73;;
42770;SDS011;28426;42.872;25.314;2024-01-16T13:14:37;7.45;;;1.70;;
42770;SDS011;28426;42.872;25.314;2024-01-16T13:17:07;7.55;;;2.47;;
42770;SDS011;28426;42.872;25.314;2024-01-16T13:19:39;4.00;;;1.63;;
42770;SDS011;28426;42.872;25.314;2024-01-16T13:22:13;8.45;;;2.45;;
42770;SDS011;28426;42.872;25.314;2024-01-16T13:24:46;7.93;;;3.40;;
42770;SDS011;28426;42.872;25.314;2024-01-16T13:27:31;5.57;;;2.35;;
42770;SDS011;28426;42.872;25.314;2024-01-16T13:30:02;7.05;;;2.40;;
42770;SDS011;28426;42.872;25.314;2024-01-16T13:32:34;4.45;;;2.35;;
42770;SDS011;28426;42.872;25.314;2024-01-16T13:35:05;5.78;;;2.63;;
42770;SDS011;28426;42.872;25.314;2024-01-16T13:37:42;10.57;;;2.95;;
42770;SDS011;28426;42.872;25.314;2024-01-16T13:40:13;6.93;;;2.90;;
42770;SDS011;28426;42.872;25.314;2024-01-16T13:42:51;17.40;;;3.13;;
42770;SDS011;28426;42.872;25.314;2024-01-16T13:45:22;9.93;;;4.00;;
42770;SDS011;28426;42.872;25.314;2024-01-16T13:47:52;7.60;;;2.92;;
42770;SDS011;28426;42.872;25.314;2024-01-16T13:50:24;6.30;;;2.35;;
42770;SDS011;28426;42.872;25.314;2024-01-16T13:52:57;6.55;;;2.83;;
42770;SDS011;28426;42.872;25.314;2024-01-16T13:55:29;12.45;;;3.22;;
42770;SDS011;28426;42.872;25.314;2024-01-16T13:58:00;8.35;;;2.78;;
42770;SDS011;28426;42.872;25.314;2024-01-16T14:00:33;12.73;;;3.38;;
42770;SDS011;28426;42.872;25.314;2024-01-16T14:03:05;8.93;;;4.78;;
42770;SDS011;28426;42.872;25.314;2024-01-16T14:05:36;6.07;;;3.03;;
42770;SDS011;28426;42.872;25.314;2024-01-16T14:08:12;16.25;;;4.30;;
42770;SDS011;28426;42.872;25.314;2024-01-16T14:10:43;12.77;;;6.65;;
42770;SDS011;28426;42.872;25.314;2024-01-16T14:13:14;12.65;;;5.43;;
42770;SDS011;28426;42.872;25.314;2024-01-16T14:15:45;13.05;;;5.68;;
42770;SDS011;28426;42.872;25.314;2024-01-16T14:21:23;18.90;;;8.40;;
42770;SDS011;28426;42.872;25.314;2024-01-16T14:23:56;9.70;;;5.47;;
42770;SDS011;28426;42.872;25.314;2024-01-16T14:26:27;36.58;;;13.00;;
42770;SDS011;28426;42.872;25.314;2024-01-16T14:28:58;26.08;;;8.88;;
42770;SDS011;28426;42.872;25.314;2024-01-16T14:31:29;25.60;;;7.70;;
42770;SDS011;28426;42.872;25.314;2024-01-16T14:33:59;20.13;;;4.55;;
42770;SDS011;28426;42.872;25.314;2024-01-16T14:36:30;13.60;;;4.38;;
42770;SDS011;28426;42.872;25.314;2024-01-16T14:39:04;17.45;;;5.88;;
42770;SDS011;28426;42.872;25.314;2024-01-16T14:41:37;14.00;;;4.88;;
42770;SDS011;28426;42.872;25.314;2024-01-16T14:44:09;12.82;;;4.50;;
42770;SDS011;28426;42.872;25.314;2024-01-16T14:46:40;20.17;;;5.88;;
42770;SDS011;28426;42.872;25.314;2024-01-16T14:51:46;16.25;;;6.10;;
42770;SDS011;28426;42.872;25.314;2024-01-16T14:54:20;28.20;;;7.20;;
42770;SDS011;28426;42.872;25.314;2024-01-16T14:56:51;22.15;;;7.20;;
42770;SDS011;28426;42.872;25.314;2024-01-16T14:59:22;14.18;;;5.82;;
42770;SDS011;28426;42.872;25.314;2024-01-16T15:01:53;13.15;;;5.53;;
42770;SDS011;28426;42.872;25.314;2024-01-16T15:04:24;9.93;;;4.55;;
42770;SDS011;28426;42.872;25.314;2024-01-16T15:06:54;9.32;;;4.07;;
42770;SDS011;28426;42.872;25.314;2024-01-16T15:09:28;11.98;;;4.38;;
42770;SDS011;28426;42.872;25.314;2024-01-16T15:12:01;21.90;;;6.55;;
42770;SDS011;28426;42.872;25.314;2024-01-16T15:14:33;26.70;;;7.80;;
42770;SDS011;28426;42.872;25.314;2024-01-16T15:17:04;23.35;;;6.82;;
42770;SDS011;28426;42.872;25.314;2024-01-16T15:19:36;16.35;;;5.30;;